Time;durP1;ratioP1;P1;durP2;ratioP2;P2;SDS_P1;SDS_P2;PMS_P1;PMS_P2;Temp;Humidity;BMP_temperature;BMP_pressure;BME280_temperature;BME280_humidity;BME280_pressure;Samples;Min_cycle;Max_cycle;Signal;HPM_P1;HPM_P2
2022/05/17 00:02:25;;;;;;;0.10;0.10;;;;;;;18.73;59.85;102040.66;5054889;28;20025;-80
2022/05/17 00:04:51;;;;;;;0.10;0.10;;;;;;;18.73;59.94;102037.97;5041361;28;20071;-80
2022/05/17 00:07:18;;;;;;;0.40;0.40;;;;;;;18.70;59.58;102038.06;5049226;28;20039;-81
2022/05/17 00:09:44;;;;;;;0.30;0.30;;;;;;;18.68;59.95;102042.63;5048251;28;20031;-80
2022/05/17 00:12:12;;;;;;;0.03;0.03;;;;;;;18.65;60.13;102037.34;5051686;28;20060;-80
2022/05/17 00:14:38;;;;;;;0.00;0.00;;;;;;;18.63;60.42;102039.25;5048361;28;20032;-80
2022/05/17 00:17:04;;;;;;;0.00;0.00;;;;;;;18.62;60.13;102036.59;5055842;28;20048;-80
2022/05/17 00:19:31;;;;;;;0.05;0.05;;;;;;;18.61;60.35;102041.09;5046169;28;20037;-80
2022/05/17 00:21:57;;;;;;;3.40;0.75;;;;;;;18.61;60.12;102035.72;5043923;28;20021;-80
2022/05/17 00:24:25;;;;;;;0.22;0.22;;;;;;;18.61;60.35;102035.72;5045741;28;20029;-80
2022/05/17 00:26:52;;;;;;;0.10;0.10;;;;;;;18.59;60.27;102030.41;5054449;28;20609;-80
2022/05/17 00:29:18;;;;;;;0.47;0.47;;;;;;;18.59;59.85;102021.47;5046024;28;20086;-79
2022/05/17 00:31:45;;;;;;;0.00;0.00;;;;;;;18.58;60.34;102033.16;5051448;28;20116;-80
2022/05/17 00:34:11;;;;;;;0.47;0.47;;;;;;;18.61;59.62;102035.72;5048881;28;20119;-80
2022/05/17 00:36:37;;;;;;;0.00;0.00;;;;;;;18.58;60.62;102031.34;5048691;28;20041;-81
2022/05/17 00:39:04;;;;;;;0.10;0.10;;;;;;;18.59;60.42;102034.88;5057181;28;20029;-80
2022/05/17 00:41:30;;;;;;;0.00;0.00;;;;;;;18.60;60.28;102033.97;5052020;28;20041;-80
2022/05/17 00:49:39;;;;;;;0.00;0.00;;;;;;;18.58;60.11;102041.22;5079396;22;20382;-76
2022/05/17 00:52:12;;;;;;;0.00;0.00;;;;;;;18.58;60.23;102036.72;5039905;28;20487;-76
2022/05/17 00:54:42;;;;;;;0.10;0.10;;;;;;;18.50;60.81;102044.13;5042816;28;20029;-75
2022/05/17 00:57:20;;;;;;;0.10;0.10;;;;;;;18.54;60.59;102044.91;5012361;28;20550;-76
2022/05/17 00:59:46;;;;;;;0.03;0.03;;;;;;;18.50;60.43;102046.81;5020171;28;20026;-76
2022/05/17 01:02:13;;;;;;;0.00;0.00;;;;;;;18.50;60.46;102046.81;5013180;28;20112;-76
2022/05/17 01:04:40;;;;;;;33.33;1.45;;;;;;;18.49;60.40;102052.25;5023041;28;20116;-76
2022/05/17 01:07:10;;;;;;;0.10;0.10;;;;;;;18.49;60.41;102049.56;5017636;28;20068;-76
2022/05/17 01:09:36;;;;;;;0.10;0.10;;;;;;;18.47;60.47;102054.09;5024051;28;20030;-77
2022/05/17 01:12:03;;;;;;;0.10;0.10;;;;;;;18.42;60.26;102047.09;5017901;28;20038;-77
2022/05/17 01:15:00;;;;;;;0.10;0.10;;;;;;;18.41;60.93;102050.69;5024865;28;20496;-77
2022/05/17 01:17:15;;;;;;;0.10;0.10;;;;;;;18.37;61.02;102049.06;5022649;28;20041;-77
2022/05/17 01:19:43;;;;;;;0.10;0.10;;;;;;;18.35;61.38;102048.22;5021461;28;20062;-77
2022/05/17 01:22:10;;;;;;;0.08;0.08;;;;;;;18.32;61.61;102055.47;5022842;28;20562;-77
2022/05/17 01:24:37;;;;;;;0.00;0.00;;;;;;;18.32;61.17;102051.00;5019093;28;20112;-77
2022/05/17 01:27:19;;;;;;;0.30;0.30;;;;;;;18.34;60.81;102049.13;5021902;28;20065;-76
2022/05/17 01:29:48;;;;;;;0.00;0.00;;;;;;;18.31;60.49;102059.97;5024264;28;20072;-77
2022/05/17 01:32:15;;;;;;;0.03;0.03;;;;;;;18.29;60.85;102047.56;5020013;28;20025;-77
2022/05/17 01:34:42;;;;;;;0.00;0.00;;;;;;;18.31;60.61;102051.94;5020803;28;20026;-77
2022/05/17 01:37:10;;;;;;;0.10;0.10;;;;;;;18.27;60.54;102048.47;5021552;28;20041;-77
2022/05/17 01:39:37;;;;;;;0.10;0.10;;;;;;;18.23;60.73;102057.56;5023453;28;20037;-76
2022/05/17 01:42:04;;;;;;;0.00;0.00;;;;;;;18.21;60.64;102058.53;5019510;28;20034;-77
2022/05/17 01:44:30;;;;;;;0.00;0.00;;;;;;;18.18;60.81;102055.94;5017327;28;20038;-77
2022/05/17 01:46:56;;;;;;;0.10;0.10;;;;;;;18.16;60.52;102049.78;5025750;28;20034;-77
2022/05/17 01:49:23;;;;;;;0.17;0.17;;;;;;;18.15;60.99;102050.69;5022499;28;20038;-77
2022/05/17 01:51:49;;;;;;;0.00;0.00;;;;;;;18.13;60.82;102049.84;5017513;28;20036;-77
2022/05/17 01:54:15;;;;;;;0.00;0.00;;;;;;;18.10;61.06;102038.28;5020945;28;20078;-75
2022/05/17 01:56:41;;;;;;;0.05;0.05;;;;;;;18.09;60.98;102041.94;5018533;28;20042;-77
2022/05/17 01:59:08;;;;;;;0.00;0.00;;;;;;;18.08;61.01;102037.47;5019377;28;20736;-76
2022/05/17 02:01:34;;;;;;;0.20;0.20;;;;;;;18.07;60.81;102041.09;5003444;28;20412;-76
2022/05/17 02:04:00;;;;;;;0.30;0.30;;;;;;;18.06;61.42;102041.16;5008841;28;20432;-75
2022/05/17 02:06:26;;;;;;;0.00;0.00;;;;;;;18.05;61.18;102042.94;5007903;28;20037;-76
2022/05/17 02:08:52;;;;;;;0.00;0.00;;;;;;;18.03;61.18;102042.13;5009140;28;20031;-76
2022/05/17 02:11:18;;;;;;;0.10;0.10;;;;;;;18.02;61.61;102048.41;5010921;28;20500;-76
2022/05/17 02:13:45;;;;;;;0.10;0.10;;;;;;;18.02;61.65;102044.84;5005919;28;20033;-77
2022/05/17 02:16:11;;;;;;;0.10;0.10;;;;;;;18.02;61.72;102048.41;5001049;28;20022;-76
2022/05/17 02:18:38;;;;;;;0.10;0.10;;;;;;;18.03;61.44;102055.53;5005796;28;20050;-76
2022/05/17 02:21:05;;;;;;;0.08;0.08;;;;;;;18.03;61.35;102057.31;5007335;28;20052;-75
2022/05/17 02:23:31;;;;;;;0.10;0.10;;;;;;;18.02;61.38;102056.44;5012455;28;20042;-76
2022/05/17 02:25:57;;;;;;;0.08;0.08;;;;;;;18.03;60.97;102055.53;5004857;28;20476;-76
2022/05/17 02:28:23;;;;;;;0.00;0.00;;;;;;;18.06;61.30;102054.56;5004381;28;20554;-75
2022/05/17 02:30:50;;;;;;;0.00;0.00;;;;;;;18.08;61.03;102058.94;5008841;28;20091;-76
2022/05/17 02:33:16;;;;;;;0.00;0.00;;;;;;;18.10;61.30;102061.56;5005917;28;20037;-76
2022/05/17 02:35:43;;;;;;;0.00;0.00;;;;;;;18.13;61.71;102063.25;5005897;28;20037;-75
2022/05/17 02:38:10;;;;;;;0.00;0.00;;;;;;;18.13;61.80;102064.16;5009552;28;20029;-76
2022/05/17 02:40:36;;;;;;;0.00;0.00;;;;;;;18.15;61.41;102061.44;5009138;28;20034;-76
2022/05/17 02:43:04;;;;;;;0.00;0.00;;;;;;;18.16;61.74;102060.50;5003654;28;20022;-76
2022/05/17 02:45:30;;;;;;;0.00;0.00;;;;;;;18.17;61.59;102057.75;5010236;28;20041;-76
2022/05/17 02:47:57;;;;;;;0.00;0.00;;;;;;;18.20;61.87;102059.47;5003982;28;20034;-77
2022/05/17 02:50:23;;;;;;;0.00;0.00;;;;;;;18.22;61.95;102068.34;5005458;28;20042;-76
2022/05/17 02:52:50;;;;;;;0.00;0.00;;;;;;;18.23;62.02;102070.09;5003985;28;20041;-77
2022/05/17 02:55:16;;;;;;;0.00;0.00;;;;;;;18.26;61.49;102062.81;5004546;28;20057;-76
2022/05/17 02:57:42;;;;;;;0.00;0.00;;;;;;;18.30;61.35;102058.22;5006085;28;20023;-77
2022/05/17 03:00:13;;;;;;;0.00;0.00;;;;;;;18.35;61.58;102061.63;5000624;28;20131;-76
2022/05/17 03:02:39;;;;;;;0.00;0.00;;;;;;;18.39;61.63;102068.66;5001526;28;20116;-77
2022/05/17 03:05:05;;;;;;;0.10;0.10;;;;;;;18.39;61.34;102066.00;5007978;28;20037;-76
2022/05/17 03:07:32;;;;;;;0.00;0.00;;;;;;;18.41;61.46;102077.53;5007201;28;20053;-77
2022/05/17 03:09:58;;;;;;;0.10;0.10;;;;;;;18.41;61.43;102076.66;5000854;28;20044;-76
2022/05/17 03:12:24;;;;;;;0.08;0.08;;;;;;;18.40;61.66;102078.44;5005938;28;20064;-77
2022/05/17 03:14:50;;;;;;;0.00;0.00;;;;;;;18.39;61.26;102079.41;5007622;28;20108;-77
2022/05/17 03:17:17;;;;;;;1.65;1.55;;;;;;;18.38;61.54;102080.31;5003657;28;20029;-77
2022/05/17 03:19:44;;;;;;;0.00;0.00;;;;;;;18.36;61.68;102078.63;5009868;28;20121;-78
2022/05/17 03:22:11;;;;;;;0.10;0.10;;;;;;;18.34;61.50;102078.66;5007476;28;20068;-76
2022/05/17 03:24:38;;;;;;;0.03;0.03;;;;;;;18.32;61.38;102085.91;5003547;28;20045;-76
2022/05/17 03:27:06;;;;;;;0.20;0.20;;;;;;;18.32;61.70;102088.56;5000810;28;20026;-77
2022/05/17 03:29:32;;;;;;;0.50;0.50;;;;;;;18.30;61.51;102095.78;5004683;28;20037;-76
2022/05/17 03:32:00;;;;;;;0.40;0.40;;;;;;;18.30;61.61;102090.41;5007258;28;20091;-77
2022/05/17 03:34:27;;;;;;;0.00;0.00;;;;;;;18.30;61.81;102093.09;5009252;28;20037;-77
2022/05/17 03:36:53;;;;;;;0.10;0.10;;;;;;;18.31;61.86;102096.69;5008381;28;20034;-77
2022/05/17 03:39:19;;;;;;;0.15;0.15;;;;;;;18.31;61.63;102094.00;5000770;28;20038;-77
2022/05/17 03:41:45;;;;;;;0.15;0.15;;;;;;;18.32;61.91;102093.94;5007858;28;20045;-77
2022/05/17 03:44:11;;;;;;;0.10;0.10;;;;;;;18.37;61.63;102091.13;5009338;28;20034;-77
2022/05/17 03:46:38;;;;;;;0.10;0.10;;;;;;;18.38;62.17;102093.75;5003034;28;20029;-77
2022/05/17 03:49:04;;;;;;;0.00;0.00;;;;;;;18.43;61.49;102094.47;5003406;28;20116;-78
2022/05/17 03:51:30;;;;;;;0.00;0.00;;;;;;;18.48;61.61;102096.09;5001312;28;20088;-77
2022/05/17 03:53:56;;;;;;;0.00;0.00;;;;;;;18.51;62.22;102096.03;5008071;28;20122;-77
2022/05/17 03:56:22;;;;;;;0.05;0.05;;;;;;;18.56;61.94;102097.59;5011683;28;20702;-76
2022/05/17 03:58:48;;;;;;;0.73;0.73;;;;;;;18.61;61.57;102099.28;5012129;28;20120;-77
2022/05/17 04:01:15;;;;;;;0.00;0.00;;;;;;;18.66;61.71;102103.53;5009644;28;20040;-77
2022/05/17 04:03:43;;;;;;;0.10;0.10;;;;;;;18.71;61.66;102106.09;5008542;28;20413;-78
2022/05/17 04:06:09;;;;;;;0.00;0.00;;;;;;;18.73;61.54;102098.84;5004525;28;20021;-78
2022/05/17 04:08:36;;;;;;;0.10;0.10;;;;;;;18.74;61.25;102112.22;5006740;28;20041;-77
2022/05/17 04:11:04;;;;;;;0.10;0.10;;;;;;;18.76;61.41;102104.97;5002166;28;20064;-77
2022/05/17 04:13:31;;;;;;;0.43;0.43;;;;;;;18.80;61.27;102102.19;4985184;28;20172;-77
2022/05/17 04:15:59;;;;;;;0.63;0.63;;;;;;;18.84;61.42;102110.09;4995322;28;20030;-77
2022/05/17 04:18:28;;;;;;;0.10;0.10;;;;;;;18.91;60.98;102103.59;5003700;28;20488;-77
2022/05/17 04:21:00;;;;;;;0.10;0.10;;;;;;;18.95;61.06;102104.38;5004735;28;20064;-78
2022/05/17 04:23:27;;;;;;;0.10;0.10;;;;;;;19.01;60.81;102114.03;5007507;28;20033;-77
2022/05/17 04:25:53;;;;;;;0.75;0.45;;;;;;;19.03;60.89;102110.34;5005418;28;20511;-77
2022/05/17 04:28:19;;;;;;;0.00;0.00;;;;;;;19.06;60.62;102107.56;5006507;28;20915;-77
2022/05/17 04:30:45;;;;;;;0.25;0.25;;;;;;;19.11;60.38;102110.09;5004836;28;20032;-76
2022/05/17 04:33:13;;;;;;;0.00;0.00;;;;;;;19.16;60.53;102117.97;4999846;28;20215;-76
2022/05/17 04:35:39;;;;;;;0.05;0.05;;;;;;;19.19;60.57;102120.53;5001873;28;20041;-76
2022/05/17 04:38:07;;;;;;;0.40;0.40;;;;;;;19.24;60.44;102121.28;5005159;28;20033;-77
2022/05/17 04:40:34;;;;;;;0.10;0.10;;;;;;;19.27;60.40;102118.47;5006801;28;20103;-77
2022/05/17 04:43:00;;;;;;;0.08;0.08;;;;;;;19.31;60.42;102121.94;5002559;28;20038;-76
2022/05/17 04:45:26;;;;;;;0.10;0.10;;;;;;;19.36;60.24;102125.31;4998345;28;20038;-77
2022/05/17 04:47:53;;;;;;;0.00;0.00;;;;;;;19.39;60.13;102125.22;5008086;28;20101;-77
2022/05/17 04:50:19;;;;;;;0.00;0.00;;;;;;;19.43;60.09;102125.97;5006541;28;20056;-77
2022/05/17 04:52:47;;;;;;;0.00;0.00;;;;;;;19.47;59.95;102133.84;5004420;28;20061;-76
2022/05/17 04:55:16;;;;;;;0.10;0.10;;;;;;;19.50;60.14;102139.13;5001299;28;20411;-77
2022/05/17 04:57:42;;;;;;;0.00;0.00;;;;;;;19.54;59.96;102129.16;5005566;28;20624;-77
2022/05/17 05:00:12;;;;;;;0.10;0.10;;;;;;;19.61;59.83;102136.03;5004117;28;21718;-77
2022/05/17 05:02:38;;;;;;;0.00;0.00;;;;;;;19.63;60.11;102134.16;5005737;28;20034;-76
2022/05/17 05:05:06;;;;;;;0.10;0.10;;;;;;;19.68;60.02;102136.69;5001951;28;20510;-77
2022/05/17 05:07:32;;;;;;;0.32;0.30;;;;;;;19.72;59.68;102138.31;5006417;28;20052;-77
2022/05/17 05:09:58;;;;;;;0.10;0.10;;;;;;;19.76;59.70;102147.16;5004689;28;20499;-77
2022/05/17 05:12:25;;;;;;;0.50;0.50;;;;;;;19.80;59.35;102154.16;5002779;28;20042;-77
2022/05/17 05:14:51;;;;;;;0.08;0.08;;;;;;;19.82;59.63;102145.09;5004164;28;20025;-76
2022/05/17 05:17:17;;;;;;;0.10;0.10;;;;;;;19.87;59.36;102153.03;5006583;28;20503;-76
2022/05/17 05:19:44;;;;;;;0.00;0.00;;;;;;;19.92;59.49;102147.47;5000723;28;20034;-76
2022/05/17 05:22:10;;;;;;;0.10;0.10;;;;;;;19.96;59.12;102146.41;4979807;28;20034;-76
2022/05/17 05:24:36;;;;;;;0.00;0.00;;;;;;;19.93;58.91;102146.56;4999833;28;20062;-77
2022/05/17 05:27:02;;;;;;;0.00;0.00;;;;;;;20.00;58.78;102146.25;5004152;28;20076;-77
2022/05/17 05:29:29;;;;;;;0.00;0.00;;;;;;;20.03;58.78;102156.88;5001192;28;20088;-76
2022/05/17 05:31:55;;;;;;;0.10;0.10;;;;;;;20.04;58.62;102150.56;5001152;28;20076;-75
2022/05/17 05:34:21;;;;;;;0.10;0.10;;;;;;;20.04;58.60;102142.47;5002215;28;20030;-76
2022/05/17 05:36:48;;;;;;;0.10;0.10;;;;;;;20.03;58.16;102153.31;5006334;28;20039;-77
2022/05/17 05:39:15;;;;;;;0.10;0.10;;;;;;;20.04;58.17;102155.94;5003964;28;20026;-76
2022/05/17 05:41:42;;;;;;;0.10;0.10;;;;;;;20.06;58.02;102155.00;5005998;28;20034;-77
2022/05/17 05:44:08;;;;;;;0.00;0.00;;;;;;;20.05;57.91;102154.16;5005874;28;20037;-77
2022/05/17 05:46:34;;;;;;;0.00;0.00;;;;;;;20.06;57.83;102163.94;5007245;28;20040;-76
2022/05/17 05:49:00;;;;;;;0.10;0.10;;;;;;;20.12;57.50;102163.69;5002447;28;20044;-77
2022/05/17 05:51:26;;;;;;;0.22;0.22;;;;;;;20.14;57.46;102160.97;5005051;28;20033;-76
2022/05/17 05:53:53;;;;;;;0.08;0.08;;;;;;;20.09;56.24;102158.47;5002192;28;20048;-77
2022/05/17 05:56:19;;;;;;;0.10;0.10;;;;;;;20.19;56.61;102148.22;5001081;28;20026;-77
2022/05/17 05:58:45;;;;;;;0.03;0.03;;;;;;;20.21;56.00;102146.31;5000576;28;20030;-76
2022/05/17 06:01:12;;;;;;;0.00;0.00;;;;;;;20.17;56.34;102147.38;4998934;28;20033;-77
2022/05/17 06:03:38;;;;;;;0.00;0.00;;;;;;;20.25;56.05;102149.75;4990052;28;20030;-76
2022/05/17 06:06:08;;;;;;;0.00;0.00;;;;;;;20.22;56.15;102149.91;5009335;28;20044;-77
2022/05/17 06:08:34;;;;;;;0.00;0.00;;;;;;;20.21;55.62;102154.38;5010631;28;20034;-77
2022/05/17 06:11:01;;;;;;;0.00;0.00;;;;;;;20.20;55.70;102152.66;5009981;28;20033;-76
2022/05/17 06:13:28;;;;;;;0.10;0.10;;;;;;;20.20;55.93;102149.97;5013796;28;20029;-77
2022/05/17 06:15:57;;;;;;;0.20;0.20;;;;;;;20.22;56.10;102147.22;5013732;28;20029;-76
2022/05/17 06:18:23;;;;;;;0.10;0.10;;;;;;;20.23;55.68;102144.44;5011837;28;20033;-76
2022/05/17 06:20:51;;;;;;;0.00;0.00;;;;;;;20.20;55.33;102144.59;5009461;28;20045;-76
2022/05/17 06:23:19;;;;;;;0.00;0.00;;;;;;;20.17;55.37;102150.06;5013034;28;20030;-76
2022/05/17 06:25:45;;;;;;;0.00;0.00;;;;;;;20.16;55.60;102159.06;5011968;28;20457;-77
2022/05/17 06:28:12;;;;;;;0.10;0.10;;;;;;;20.11;55.80;102158.38;5015610;28;20026;-78
2022/05/17 06:30:38;;;;;;;0.03;0.03;;;;;;;20.11;55.94;102150.31;5017951;28;20362;-78
2022/05/17 06:33:09;;;;;;;0.00;0.00;;;;;;;20.09;55.60;102158.47;5015960;28;20096;-79
2022/05/17 06:35:37;;;;;;;0.08;0.08;;;;;;;20.10;55.55;102153.94;5014575;28;20042;-77
2022/05/17 06:38:04;;;;;;;0.20;0.20;;;;;;;20.12;55.67;102152.06;5009366;28;20415;-77
2022/05/17 06:40:31;;;;;;;0.20;0.20;;;;;;;20.18;55.18;102160.78;5015043;28;20056;-77
2022/05/17 06:42:57;;;;;;;0.28;0.28;;;;;;;20.25;54.93;102152.47;5014911;28;20483;-77
2022/05/17 06:45:23;;;;;;;0.00;0.00;;;;;;;20.24;55.25;102156.06;5014318;28;20033;-77
2022/05/17 06:47:49;;;;;;;0.10;0.10;;;;;;;20.25;55.30;102158.72;5010998;28;20088;-76
2022/05/17 06:50:15;;;;;;;0.00;0.00;;;;;;;20.20;54.79;102150.84;5028133;22;20433;-80
2022/05/17 06:52:41;;;;;;;0.10;0.10;;;;;;;20.25;55.13;102152.47;5011605;28;20033;-80
2022/05/17 06:55:08;;;;;;;0.30;0.30;;;;;;;20.25;55.52;102150.66;5014640;28;20038;-79
2022/05/17 06:57:34;;;;;;;0.10;0.10;;;;;;;20.26;55.63;102155.09;5016277;28;20395;-81
2022/05/17 07:00:00;;;;;;;0.40;0.40;;;;;;;20.28;55.52;102147.81;5014051;28;20034;-77
2022/05/17 07:02:26;;;;;;;0.08;0.08;;;;;;;20.32;55.39;102141.38;5014194;28;20092;-79
2022/05/17 07:04:52;;;;;;;0.00;0.00;;;;;;;20.37;55.58;102141.19;5015387;28;20026;-78
2022/05/17 07:07:18;;;;;;;0.10;0.10;;;;;;;20.38;55.62;102144.78;5015714;28;20502;-79
2022/05/17 07:13:07;;;;;;;0.25;0.20;;;;;;;20.43;55.44;102151.72;5015136;28;20026;-79
2022/05/17 07:15:16;;;;;;;0.50;0.50;;;;;;;20.71;55.54;102144.31;5016783;28;20091;-79
2022/05/17 07:17:42;;;;;;;0.10;0.10;;;;;;;20.84;55.37;102137.50;5018113;28;20034;-80
2022/05/17 07:20:09;;;;;;;0.10;0.10;;;;;;;21.00;55.70;102146.66;5016468;28;20107;-81
2022/05/17 07:22:36;;;;;;;0.10;0.10;;;;;;;21.17;55.45;102143.25;5013190;28;20119;-79
2022/05/17 07:25:03;;;;;;;0.10;0.10;;;;;;;21.34;55.55;102149.69;5014432;28;20120;-79
2022/05/17 07:27:29;;;;;;;0.10;0.10;;;;;;;21.48;55.22;102146.38;5015390;28;20482;-80
2022/05/17 07:29:55;;;;;;;0.20;0.20;;;;;;;21.80;54.82;102152.16;5016884;28;20026;-82
2022/05/17 07:32:21;;;;;;;0.30;0.30;;;;;;;21.95;53.85;102151.41;5014173;28;20037;-81
2022/05/17 07:34:47;;;;;;;2.30;0.90;;;;;;;22.08;53.57;102151.72;5018164;28;20116;-80
2022/05/17 07:37:15;;;;;;;2.15;2.05;;;;;;;22.23;53.48;102155.50;5021480;28;20026;-80
2022/05/17 07:39:41;;;;;;;0.10;0.10;;;;;;;22.38;53.45;102166.53;5017739;28;20022;-77
2022/05/17 07:42:08;;;;;;;0.10;0.10;;;;;;;22.44;52.75;102175.22;5025558;28;20022;-80
2022/05/17 07:44:35;;;;;;;0.52;0.52;;;;;;;22.52;52.82;102168.53;5025418;28;20057;-80
2022/05/17 07:47:02;;;;;;;0.10;0.10;;;;;;;22.62;53.25;102176.13;5016839;28;20037;-82
2022/05/17 07:49:29;;;;;;;0.10;0.10;;;;;;;22.73;53.15;102180.09;5011852;28;20030;-78
2022/05/17 07:51:55;;;;;;;0.10;0.10;;;;;;;22.83;53.39;102181.41;5012646;28;20029;-81
2022/05/17 07:54:21;;;;;;;0.17;0.17;;;;;;;22.91;53.17;102181.00;5013485;28;20033;-80
2022/05/17 07:56:48;;;;;;;0.10;0.10;;;;;;;22.94;52.39;102189.84;5014358;28;20072;-78
2022/05/17 07:59:14;;;;;;;0.10;0.10;;;;;;;22.94;53.04;102181.72;5012919;28;20121;-79
2022/05/17 08:01:40;;;;;;;0.10;0.10;;;;;;;22.93;53.08;102185.38;5013252;28;20026;-79
2022/05/17 08:04:07;;;;;;;0.30;0.30;;;;;;;22.85;53.03;102184.88;5011764;28;20507;-79
2022/05/17 08:06:35;;;;;;;0.20;0.20;;;;;;;22.87;53.77;102183.00;5013225;28;20037;-79
2022/05/17 08:09:03;;;;;;;0.20;0.20;;;;;;;22.81;53.85;102183.31;5012725;28;20025;-80
2022/05/17 08:11:29;;;;;;;0.20;0.20;;;;;;;22.84;53.82;102188.56;5013635;28;20037;-79
2022/05/17 08:13:55;;;;;;;0.32;0.28;;;;;;;22.91;53.63;102189.97;5014651;28;20562;-79
2022/05/17 08:16:21;;;;;;;0.10;0.10;;;;;;;23.04;53.45;102200.16;5016294;28;20057;-80
2022/05/17 08:18:50;;;;;;;0.10;0.10;;;;;;;23.19;53.63;102209.34;5014791;28;20033;-79
2022/05/17 08:21:17;;;;;;;0.08;0.08;;;;;;;23.38;52.91;102193.91;5007088;28;20053;-78
2022/05/17 08:23:43;;;;;;;0.08;0.08;;;;;;;23.57;52.36;102191.09;5011235;28;20041;-78
2022/05/17 08:28:57;;;;;;;0.10;0.10;;;;;;;23.96;52.55;102190.88;5016712;28;20106;-79
2022/05/17 08:31:23;;;;;;;0.00;0.00;;;;;;;24.10;51.84;102185.59;5012327;28;20048;-77
2022/05/17 08:33:50;;;;;;;0.10;0.10;;;;;;;24.21;50.98;102177.72;5012272;28;20037;-79
2022/05/17 08:36:17;;;;;;;0.10;0.10;;;;;;;24.29;51.04;102179.09;5015736;28;20487;-80
2022/05/17 08:38:48;;;;;;;0.20;0.20;;;;;;;24.41;50.73;102182.94;5015699;28;20025;-80
2022/05/17 08:41:37;;;;;;;0.00;0.00;;;;;;;24.60;49.62;102183.63;4998824;28;20029;-80
2022/05/17 08:52:08;;;;;;;0.10;0.10;;;;;;;24.86;48.94;102174.00;5137961;27;20353;-82
2022/05/17 08:54:41;;;;;;;0.00;0.00;;;;;;;24.92;49.77;102172.75;5119709;28;20074;-83
2022/05/17 08:59:47;;;;;;;0.10;0.10;;;;;;;24.97;50.20;102170.66;5092949;27;20526;-79
2022/05/17 09:07:48;;;;;;;0.20;0.20;;;;;;;24.85;51.18;102164.13;5092699;28;20336;-79
2022/05/17 09:10:30;;;;;;;0.10;0.10;;;;;;;24.93;50.17;102163.66;5093194;28;20040;-79
2022/05/17 09:13:17;;;;;;;0.10;0.10;;;;;;;25.03;49.90;102169.38;5090258;28;20060;-77
2022/05/17 09:15:44;;;;;;;0.10;0.10;;;;;;;25.09;49.65;102169.03;5084578;28;20035;-81
2022/05/17 09:18:14;;;;;;;0.10;0.10;;;;;;;25.40;49.38;102177.16;5086448;28;20105;-79
2022/05/17 09:20:41;;;;;;;0.20;0.20;;;;;;;25.59;48.72;102160.59;5089050;28;20036;-79
2022/05/17 09:23:08;;;;;;;0.30;0.30;;;;;;;25.75;48.04;102163.22;5092138;28;20060;-80
2022/05/17 09:28:44;;;;;;;0.10;0.10;;;;;;;25.80;47.50;102166.50;5031564;28;20444;-79
2022/05/17 09:31:16;;;;;;;0.10;0.10;;;;;;;25.80;47.57;102164.66;5032698;28;20034;-79
2022/05/17 09:33:43;;;;;;;0.00;0.00;;;;;;;25.87;48.17;102156.13;5051940;28;20048;-78
2022/05/17 09:36:23;;;;;;;0.10;0.10;;;;;;;25.96;48.41;102159.13;5044812;28;20041;-80
2022/05/17 09:38:52;;;;;;;0.10;0.10;;;;;;;25.96;47.60;102158.25;5018456;28;20030;-79
2022/05/17 09:41:25;;;;;;;0.25;0.25;;;;;;;26.09;47.91;102156.50;5023083;28;20503;-80
2022/05/17 09:44:01;;;;;;;0.00;0.00;;;;;;;26.05;47.94;102152.22;5025569;28;20096;-80
2022/05/17 09:46:33;;;;;;;0.15;0.15;;;;;;;26.06;46.97;102148.56;5022375;28;20026;-80
2022/05/17 09:54:48;;;;;;;12.88;0.50;;;;;;;26.01;46.52;102153.41;5112969;27;20395;-81
2022/05/17 09:59:54;;;;;;;0.17;0.17;;;;;;;26.00;48.09;102152.50;5111946;27;20408;-81
2022/05/17 10:05:25;;;;;;;0.00;0.00;;;;;;;26.03;46.79;102146.00;5132469;27;20361;-82
2022/05/17 10:07:55;;;;;;;2.40;0.90;;;;;;;25.89;47.55;102141.47;5139161;27;20027;-81
2022/05/17 10:10:29;;;;;;;0.10;0.10;;;;;;;25.90;48.03;102131.50;5114692;27;20533;-81
2022/05/17 10:13:17;;;;;;;1.38;1.27;;;;;;;25.93;47.91;102128.56;5119010;28;20031;-81
2022/05/17 10:15:48;;;;;;;0.10;0.10;;;;;;;26.00;48.82;102132.63;5113688;28;20038;-80
2022/05/17 10:21:03;;;;;;;0.00;0.00;;;;;;;26.25;47.63;102128.34;5072395;28;20411;-81
2022/05/17 10:23:45;;;;;;;0.10;0.10;;;;;;;26.37;47.60;102127.53;5054898;28;20041;-82
2022/05/17 10:26:18;;;;;;;0.00;0.00;;;;;;;26.57;46.82;102126.16;5044930;28;20076;-82
2022/05/17 10:29:01;;;;;;;0.10;0.10;;;;;;;26.56;45.63;102118.13;5038676;28;20037;-81
2022/05/17 10:31:53;;;;;;;0.10;0.10;;;;;;;26.66;46.92;102124.69;5034395;28;20489;-81
2022/05/17 10:37:03;;;;;;;0.10;0.10;;;;;;;26.77;46.54;102127.56;5105950;27;21174;-81
2022/05/17 10:39:54;;;;;;;0.10;0.10;;;;;;;27.01;44.80;102105.06;5095048;28;20032;-80
2022/05/17 10:42:21;;;;;;;0.15;0.15;;;;;;;27.06;45.41;102115.63;5092045;28;20517;-81
2022/05/17 10:44:53;;;;;;;0.10;0.10;;;;;;;26.95;44.77;102105.50;5092147;28;20064;-81
2022/05/17 10:47:48;;;;;;;0.30;0.30;;;;;;;27.15;44.28;102108.69;5091870;28;20502;-80
2022/05/17 10:50:36;;;;;;;0.00;0.00;;;;;;;27.15;45.68;102103.25;5092206;28;20493;-80
2022/05/17 11:02:06;;;;;;;0.00;0.00;;;;;;;28.07;44.44;102074.78;5086314;28;20401;-81
2022/05/17 11:10:28;;;;;;;0.13;0.13;;;;;;;28.05;44.19;102073.16;5126088;27;20385;-80
2022/05/17 11:13:05;;;;;;;0.20;0.20;;;;;;;28.03;43.52;102064.22;5091921;28;20032;-81
2022/05/17 11:15:35;;;;;;;0.20;0.20;;;;;;;28.12;43.45;102060.81;5101836;28;20100;-80
2022/05/17 11:18:16;;;;;;;0.10;0.10;;;;;;;27.88;42.62;102063.53;5073246;28;20032;-82
2022/05/17 11:21:03;;;;;;;0.10;0.10;;;;;;;27.93;40.30;102055.88;5072858;28;20037;-81
2022/05/17 11:29:49;;;;;;;0.10;0.10;;;;;;;28.08;41.77;102052.00;5093569;27;20431;-80
2022/05/17 11:34:53;;;;;;;0.27;0.27;;;;;;;27.94;41.39;102052.16;5121672;27;1168932;-83
2022/05/17 11:40:31;;;;;;;0.00;0.00;;;;;;;27.93;41.43;102044.97;5009865;28;20757;-82
2022/05/17 11:45:55;;;;;;;0.10;0.10;;;;;;;28.27;42.99;102031.53;4989561;28;20487;-80
2022/05/17 11:48:24;;;;;;;0.20;0.20;;;;;;;28.36;41.31;102030.84;4996111;28;20027;-81
2022/05/17 11:51:00;;;;;;;0.30;0.30;;;;;;;28.33;40.51;102024.75;4990532;28;20511;-81
2022/05/17 12:01:47;;;;;;;0.45;0.45;;;;;;;28.73;41.06;102017.06;5122140;27;1185724;-82
2022/05/17 12:07:18;;;;;;;0.10;0.10;;;;;;;28.97;39.22;102010.66;5074513;28;20796;-82
2022/05/17 12:09:53;;;;;;;0.63;0.63;;;;;;;29.24;38.71;101998.50;5071981;28;20055;-81
2022/05/17 12:12:47;;;;;;;3.72;0.90;;;;;;;29.32;39.89;102006.09;5071790;28;20517;-81
2022/05/17 12:15:30;;;;;;;0.10;0.10;;;;;;;29.42;39.43;102007.06;5074598;28;20028;-80
2022/05/17 12:18:09;;;;;;;0.17;0.17;;;;;;;29.48;38.12;102008.44;5074504;28;20025;-81
2022/05/17 12:21:02;;;;;;;0.88;0.63;;;;;;;29.54;38.39;102000.59;5074132;28;20021;-82
2022/05/17 12:23:34;;;;;;;0.10;0.10;;;;;;;29.61;38.45;102000.97;5073848;28;20040;-81
2022/05/17 12:26:07;;;;;;;0.10;0.10;;;;;;;29.67;37.78;102002.28;5067682;28;20025;-82
2022/05/17 12:28:40;;;;;;;0.65;0.65;;;;;;;29.78;35.98;101995.94;5065255;28;20037;-81
2022/05/17 12:31:10;;;;;;;0.50;0.43;;;;;;;29.79;36.60;101994.94;5068602;28;20033;-79
2022/05/17 12:33:49;;;;;;;0.22;0.22;;;;;;;29.89;37.78;101998.66;5053907;28;20029;-80
2022/05/17 12:44:25;;;;;;;0.10;0.10;;;;;;;30.27;38.09;102002.75;5092214;28;20049;-80
2022/05/17 12:46:58;;;;;;;8.15;0.57;;;;;;;30.34;35.53;101995.75;5081993;28;20494;-82
2022/05/17 12:49:30;;;;;;;1.35;1.05;;;;;;;30.42;36.63;101994.19;5076526;28;20055;-82
2022/05/17 12:51:59;;;;;;;0.13;0.13;;;;;;;30.39;35.80;101989.00;5064252;22;20073;-83
2022/05/17 12:54:31;;;;;;;0.10;0.10;;;;;;;30.56;35.87;101985.69;5016238;28;20069;-82
2022/05/17 12:56:58;;;;;;;0.10;0.10;;;;;;;30.59;36.18;101982.66;5014838;28;20036;-83
2022/05/17 12:59:31;;;;;;;0.63;0.63;;;;;;;30.68;37.04;101971.94;5013838;28;20476;-83
2022/05/17 13:02:00;;;;;;;0.10;0.10;;;;;;;30.69;36.52;101965.47;5013955;28;20037;-83
2022/05/17 13:04:37;;;;;;;0.10;0.10;;;;;;;30.85;36.13;101962.25;5014738;28;20038;-83
2022/05/17 13:07:13;;;;;;;0.10;0.10;;;;;;;30.93;36.04;101952.34;5013224;28;20046;-82
2022/05/17 13:10:03;;;;;;;0.38;0.38;;;;;;;30.88;37.74;101957.38;5011523;28;20019;-83